createdAt,value
2023-02-28T00:00:57.599Z,68.16
2023-02-28T00:03:47.277Z,67.63
2023-02-28T00:06:37.606Z,67.59
2023-02-28T00:09:27.710Z,67.88
2023-02-28T00:12:17.707Z,68.94
2023-02-28T00:15:09.513Z,68.45
2023-02-28T00:18:01.021Z,69.01
2023-02-28T00:20:51.234Z,69.76
2023-02-28T00:23:41.426Z,68.00
2023-02-28T00:26:30.967Z,68.61
2023-02-28T00:29:20.986Z,68.48
2023-02-28T00:32:10.687Z,69.33
2023-02-28T00:35:02.804Z,69.19
2023-02-28T00:37:52.702Z,69.37
2023-02-28T00:40:42.760Z,69.41
2023-02-28T00:43:35.514Z,69.24
2023-02-28T00:46:25.249Z,69.71
2023-02-28T00:49:14.539Z,69.34
2023-02-28T00:52:08.762Z,69.72
2023-02-28T00:54:58.650Z,69.63
2023-02-28T00:57:48.377Z,70.20
2023-02-28T01:00:38.953Z,69.62
2023-02-28T01:03:28.825Z,70.43
2023-02-28T01:06:18.473Z,69.61
2023-02-28T01:09:10.285Z,69.66
2023-02-28T01:12:00.486Z,69.76
2023-02-28T01:14:50.708Z,70.20
2023-02-28T01:17:40.469Z,70.66
2023-02-28T01:20:30.738Z,69.83
2023-02-28T01:23:21.057Z,70.02
2023-02-28T01:26:15.313Z,71.06
2023-02-28T01:29:07.814Z,71.23
2023-02-28T01:31:58.618Z,70.90
2023-02-28T01:34:48.663Z,70.51
2023-02-28T01:37:38.460Z,70.75
2023-02-28T01:40:28.650Z,71.23
2023-02-28T01:43:24.882Z,70.87
2023-02-28T01:46:15.428Z,71.16
2023-02-28T01:49:10.472Z,71.95
2023-02-28T01:52:02.064Z,71.98
2023-02-28T01:54:54.345Z,71.58
2023-02-28T01:57:46.119Z,71.35
2023-02-28T02:00:42.116Z,71.67
2023-02-28T02:03:33.914Z,71.72
2023-02-28T02:06:25.418Z,71.52
2023-02-28T02:09:15.864Z,71.96
2023-02-28T02:12:24.784Z,72.03
2023-02-28T02:15:18.761Z,71.57
2023-02-28T02:18:17.350Z,71.48
2023-02-28T02:21:43.488Z,71.83
2023-02-28T02:24:52.703Z,71.42
2023-02-28T02:28:14.147Z,71.99
2023-02-28T02:31:27.660Z,71.77
2023-02-28T02:34:45.627Z,72.21
2023-02-28T02:38:00.195Z,72.52
2023-02-28T02:40:53.552Z,73.25
2023-02-28T02:43:48.081Z,72.67
2023-02-28T02:46:40.726Z,72.89
2023-02-28T02:49:34.160Z,72.79
2023-02-28T02:52:34.288Z,73.25
2023-02-28T02:55:25.102Z,73.51
2023-02-28T02:58:17.848Z,73.03
2023-02-28T03:01:08.130Z,73.38
2023-02-28T03:04:00.513Z,73.33
2023-02-28T03:06:50.059Z,74.07
2023-02-28T03:09:41.068Z,73.60
2023-02-28T03:12:43.348Z,73.24
2023-02-28T03:15:39.167Z,73.44
2023-02-28T03:18:39.518Z,73.93
2023-02-28T03:21:33.481Z,73.63
2023-02-28T03:24:28.599Z,73.69
2023-02-28T03:27:26.153Z,74.01
2023-02-28T03:30:22.968Z,74.56
2023-02-28T03:33:15.754Z,74.48
2023-02-28T03:36:07.768Z,74.46
2023-02-28T03:39:03.401Z,74.99
2023-02-28T03:41:56.826Z,74.11
2023-02-28T03:44:51.719Z,74.17
2023-02-28T03:47:47.396Z,74.69
2023-02-28T03:50:39.464Z,74.48
2023-02-28T03:53:31.646Z,74.32
2023-02-28T03:56:23.690Z,74.53
2023-02-28T03:59:16.942Z,74.88
2023-02-28T04:02:08.376Z,74.61
2023-02-28T04:09:56.662Z,74.70
2023-02-28T04:12:46.460Z,74.29
2023-02-28T04:15:39.342Z,74.58
2023-02-28T04:18:31.227Z,74.50
2023-02-28T04:21:24.041Z,74.59
2023-02-28T04:24:16.508Z,74.94
2023-02-28T04:27:06.545Z,75.04
2023-02-28T04:29:57.215Z,74.97
2023-02-28T04:32:48.455Z,74.97
2023-02-28T04:35:40.227Z,75.05
2023-02-28T04:38:32.706Z,74.58
2023-02-28T04:41:22.520Z,74.61
2023-02-28T04:44:12.475Z,74.52
2023-02-28T04:47:02.668Z,74.79
2023-02-28T04:49:52.950Z,74.52
2023-02-28T04:52:47.560Z,74.95
2023-02-28T04:55:43.389Z,74.59
2023-02-28T04:58:39.706Z,74.94
2023-02-28T05:01:31.894Z,74.79
2023-02-28T05:04:22.433Z,74.24
2023-02-28T05:07:13.150Z,74.32
2023-02-28T05:10:05.031Z,73.87
2023-02-28T05:12:56.381Z,74.30
2023-02-28T05:15:46.322Z,74.34
2023-02-28T05:18:36.466Z,74.37
2023-02-28T05:21:29.025Z,74.20
2023-02-28T05:24:24.038Z,74.39
2023-02-28T05:27:15.146Z,74.45
2023-02-28T05:30:05.845Z,74.46
2023-02-28T05:32:56.028Z,73.60
2023-02-28T05:35:46.003Z,73.94
2023-02-28T05:38:37.779Z,74.04
2023-02-28T05:41:29.387Z,74.16
2023-02-28T05:44:22.399Z,73.47
2023-02-28T05:47:12.030Z,73.29
2023-02-28T05:50:02.509Z,73.37
2023-02-28T05:52:52.687Z,73.40
2023-02-28T05:55:42.867Z,73.81
2023-02-28T05:58:33.177Z,73.84
2023-02-28T06:01:34.751Z,73.56
2023-02-28T06:04:31.794Z,73.19
2023-02-28T06:07:23.859Z,73.17
2023-02-28T06:10:15.108Z,73.58
2023-02-28T06:13:05.824Z,73.55
2023-02-28T06:15:55.860Z,73.79
2023-02-28T06:18:47.448Z,73.47
2023-02-28T06:21:38.482Z,73.61
2023-02-28T06:24:32.262Z,73.24
2023-02-28T06:27:22.438Z,73.26
2023-02-28T06:30:13.545Z,73.52
2023-02-28T06:33:03.230Z,73.51
2023-02-28T06:35:55.109Z,73.68
2023-02-28T06:38:47.413Z,73.31
2023-02-28T06:41:53.986Z,73.34
2023-02-28T06:44:44.620Z,73.67
2023-02-28T06:47:34.441Z,73.28
2023-02-28T06:50:24.361Z,73.67
2023-02-28T06:53:16.074Z,73.58
2023-02-28T06:56:08.095Z,73.37
2023-02-28T06:58:58.302Z,73.57
2023-02-28T07:01:48.765Z,73.11
2023-02-28T07:04:41.875Z,72.60
2023-02-28T07:07:31.735Z,73.26
2023-02-28T07:10:23.163Z,73.29
2023-02-28T07:13:13.674Z,73.19
2023-02-28T07:16:05.543Z,72.60
2023-02-28T07:18:55.491Z,72.50
2023-02-28T07:21:45.146Z,72.27
2023-02-28T07:24:34.513Z,72.67
2023-02-28T07:27:26.897Z,72.08
2023-02-28T07:30:17.436Z,71.90
2023-02-28T07:33:07.541Z,71.15
2023-02-28T07:36:03.886Z,71.79
2023-02-28T07:38:56.327Z,71.39
2023-02-28T07:41:46.214Z,70.78
2023-02-28T07:44:41.638Z,71.65
2023-02-28T07:47:32.445Z,71.54
2023-02-28T07:50:27.042Z,71.17
2023-02-28T07:53:17.430Z,70.95
2023-02-28T07:56:08.568Z,70.41
2023-02-28T07:58:58.528Z,70.27
2023-02-28T08:01:51.662Z,70.48
2023-02-28T08:04:43.960Z,69.37
2023-02-28T08:07:34.793Z,69.25
2023-02-28T08:10:25.402Z,69.29
2023-02-28T08:13:15.831Z,68.60
2023-02-28T08:16:06.046Z,69.22
2023-02-28T08:18:57.709Z,68.90
2023-02-28T08:21:48.145Z,68.64
2023-02-28T08:24:38.660Z,68.35
2023-02-28T08:27:28.843Z,68.96
2023-02-28T08:30:18.928Z,68.39
2023-02-28T08:33:09.082Z,67.77
2023-02-28T08:36:00.450Z,67.33
2023-02-28T08:38:50.358Z,67.42
2023-02-28T08:41:40.303Z,67.18
2023-02-28T08:44:30.515Z,66.88
2023-02-28T08:47:23.976Z,66.29
2023-02-28T08:50:16.427Z,66.39
2023-02-28T08:53:07.603Z,66.27
2023-02-28T08:56:07.339Z,65.77
2023-02-28T08:58:58.136Z,66.18
2023-02-28T09:01:48.143Z,65.62
2023-02-28T09:04:38.280Z,64.77
2023-02-28T09:07:28.174Z,65.37
2023-02-28T09:10:19.825Z,64.04
2023-02-28T09:13:09.703Z,64.72
2023-02-28T09:16:00.834Z,63.58
2023-02-28T09:18:51.088Z,63.42
2023-02-28T09:21:41.615Z,63.38
2023-02-28T09:24:33.929Z,63.29
2023-02-28T09:27:25.375Z,62.68
2023-02-28T09:30:17.615Z,63.61
2023-02-28T09:33:07.618Z,63.02
2023-02-28T09:36:02.051Z,62.41
2023-02-28T09:38:54.329Z,62.85
2023-02-28T09:41:49.952Z,62.69
2023-02-28T09:44:45.455Z,62.10
2023-02-28T09:47:40.770Z,62.25
2023-02-28T09:50:35.077Z,61.77
2023-02-28T09:53:29.957Z,61.08
2023-02-28T09:56:28.030Z,61.25
2023-02-28T09:59:28.794Z,61.86
2023-02-28T10:02:44.674Z,61.15
2023-02-28T10:05:37.841Z,61.39
2023-02-28T10:08:29.828Z,61.32
2023-02-28T10:11:21.780Z,61.45
2023-02-28T10:14:17.126Z,60.77
2023-02-28T10:17:09.759Z,61.23
2023-02-28T10:20:09.172Z,61.01
2023-02-28T10:23:08.374Z,60.83
2023-02-28T10:26:01.708Z,60.60
2023-02-28T10:28:51.598Z,61.37
2023-02-28T10:31:41.587Z,60.88
2023-02-28T10:34:31.851Z,59.54
2023-02-28T10:37:27.032Z,60.62
2023-02-28T10:40:30.515Z,61.00
2023-02-28T10:43:23.795Z,60.71
2023-02-28T10:46:27.258Z,59.66
2023-02-28T10:49:20.130Z,60.61
2023-02-28T10:52:12.370Z,60.21
2023-02-28T10:55:23.169Z,59.53
2023-02-28T10:58:30.570Z,59.24
2023-02-28T11:01:22.052Z,58.98
2023-02-28T11:04:23.239Z,59.84
2023-02-28T11:07:23.008Z,59.98
2023-02-28T11:10:23.251Z,59.42
2023-02-28T11:13:20.530Z,58.55
2023-02-28T11:16:12.205Z,59.24
2023-02-28T11:19:02.436Z,59.29
2023-02-28T11:21:56.260Z,58.79
2023-02-28T11:24:49.054Z,59.71
2023-02-28T11:28:03.507Z,58.57
2023-02-28T11:31:03.644Z,59.11
2023-02-28T11:33:55.089Z,57.13
2023-02-28T11:36:45.913Z,57.58
2023-02-28T11:39:36.353Z,57.62
2023-02-28T11:42:34.929Z,57.82
2023-02-28T11:45:44.170Z,57.62
2023-02-28T11:48:39.510Z,58.85
2023-02-28T11:51:36.781Z,59.49
2023-02-28T11:54:45.373Z,58.91
2023-02-28T11:57:56.366Z,56.24
2023-02-28T12:01:03.873Z,57.47
2023-02-28T12:04:01.153Z,57.34
2023-02-28T12:06:53.464Z,58.00
2023-02-28T12:09:49.901Z,57.63
2023-02-28T12:12:50.538Z,56.95
2023-02-28T12:15:50.559Z,57.67
2023-02-28T12:19:04.928Z,57.23
2023-02-28T12:22:13.628Z,57.15
2023-02-28T12:25:38.784Z,58.10
2023-02-28T12:28:30.439Z,57.86
2023-02-28T12:31:23.112Z,57.34
2023-02-28T12:34:19.060Z,57.60
2023-02-28T12:37:12.716Z,58.17
2023-02-28T12:40:07.311Z,56.88
2023-02-28T12:42:59.984Z,56.36
2023-02-28T12:45:52.668Z,57.28
2023-02-28T12:48:47.390Z,56.49
2023-02-28T12:51:38.522Z,56.66
2023-02-28T12:54:31.794Z,56.54
2023-02-28T12:57:28.288Z,56.66
2023-02-28T13:00:21.308Z,56.26
2023-02-28T13:03:35.032Z,57.46
2023-02-28T13:06:57.582Z,55.81
2023-02-28T13:09:55.069Z,56.45
2023-02-28T13:12:51.379Z,55.77
2023-02-28T13:15:46.468Z,55.53
2023-02-28T13:18:40.916Z,56.26
2023-02-28T13:21:34.850Z,55.87
2023-02-28T13:24:43.407Z,55.52
2023-02-28T13:27:40.508Z,55.21
2023-02-28T13:31:06.375Z,57.07
2023-02-28T13:34:17.328Z,54.81
2023-02-28T13:37:35.841Z,54.87
2023-02-28T13:40:38.190Z,55.55
2023-02-28T13:44:06.453Z,55.40
2023-02-28T13:47:35.903Z,54.51
2023-02-28T13:50:38.860Z,54.99
2023-02-28T13:54:00.999Z,55.61
2023-02-28T13:56:59.566Z,54.74
2023-02-28T13:59:54.862Z,55.58
2023-02-28T14:02:55.716Z,55.58
2023-02-28T14:05:45.808Z,54.33
2023-02-28T14:08:36.613Z,55.29
2023-02-28T14:11:29.712Z,54.32
2023-02-28T14:14:52.142Z,54.28
2023-02-28T14:17:43.405Z,53.46
2023-02-28T14:20:34.171Z,53.32
2023-02-28T14:23:41.861Z,53.94
2023-02-28T14:26:57.216Z,53.39
2023-02-28T14:30:08.170Z,54.00
2023-02-28T14:33:11.048Z,53.83
2023-02-28T14:36:07.514Z,53.23
2023-02-28T14:38:59.248Z,53.94
2023-02-28T14:41:49.312Z,53.18
2023-02-28T14:44:39.104Z,54.35
2023-02-28T14:47:30.906Z,52.90
2023-02-28T14:50:23.665Z,51.79
2023-02-28T14:53:19.818Z,52.91
2023-02-28T14:56:19.816Z,51.38
2023-02-28T14:59:35.294Z,49.40
2023-02-28T15:02:26.675Z,48.40
2023-02-28T15:05:26.698Z,49.16
2023-02-28T15:08:17.977Z,49.93
2023-02-28T15:11:08.753Z,49.15
2023-02-28T15:13:58.044Z,49.61
2023-02-28T15:16:48.166Z,50.04
2023-02-28T15:19:39.264Z,50.23
2023-02-28T15:22:36.750Z,49.38
2023-02-28T15:25:26.498Z,48.40
2023-02-28T15:28:18.169Z,48.94
2023-02-28T15:31:21.956Z,49.48
2023-02-28T15:34:23.258Z,49.44
2023-02-28T15:37:36.311Z,50.41
2023-02-28T15:40:29.047Z,50.28
2023-02-28T15:43:19.499Z,50.31
2023-02-28T15:46:11.044Z,52.16
2023-02-28T15:49:00.423Z,52.41
2023-02-28T15:51:51.664Z,52.83
2023-02-28T15:54:43.924Z,53.06
2023-02-28T15:57:33.780Z,52.87
2023-02-28T16:00:24.761Z,52.68
2023-02-28T16:03:27.391Z,53.24
2023-02-28T16:06:33.423Z,53.82
2023-02-28T16:09:22.873Z,53.74
2023-02-28T16:12:14.883Z,54.31
2023-02-28T16:15:09.129Z,54.61
2023-02-28T16:17:59.873Z,54.39
2023-02-28T16:20:49.712Z,54.70
2023-02-28T16:23:38.902Z,55.19
2023-02-28T16:26:29.502Z,54.47
2023-02-28T16:29:26.699Z,55.86
2023-02-28T16:32:18.020Z,56.30
2023-02-28T16:35:12.477Z,56.82
2023-02-28T16:38:02.596Z,57.62
2023-02-28T16:40:53.009Z,57.59
2023-02-28T16:43:42.418Z,57.55
2023-02-28T16:46:36.989Z,57.08
2023-02-28T16:49:26.601Z,58.25
2023-02-28T16:52:16.765Z,58.20
2023-02-28T16:55:07.209Z,57.72
2023-02-28T16:57:58.874Z,58.42
2023-02-28T17:00:48.420Z,57.55
2023-02-28T17:03:41.471Z,58.25
2023-02-28T17:06:32.679Z,58.64
2023-02-28T17:09:28.315Z,59.19
2023-02-28T17:12:20.692Z,59.35
2023-02-28T17:15:12.658Z,59.23
2023-02-28T17:18:02.893Z,59.98
2023-02-28T17:20:54.053Z,59.35
2023-02-28T17:23:44.298Z,59.87
2023-02-28T17:26:34.006Z,60.65
2023-02-28T17:29:25.830Z,60.25
2023-02-28T17:32:18.148Z,60.87
2023-02-28T17:35:09.968Z,60.81
2023-02-28T17:38:01.484Z,60.96
2023-02-28T17:40:51.237Z,60.80
2023-02-28T17:43:40.948Z,61.04
2023-02-28T17:46:31.378Z,61.48
2023-02-28T17:49:22.056Z,62.21
2023-02-28T17:52:12.262Z,62.79
2023-02-28T17:55:04.298Z,62.73
2023-02-28T17:57:54.280Z,62.34
2023-02-28T18:00:44.220Z,63.62
2023-02-28T18:03:34.136Z,63.28
2023-02-28T18:06:26.725Z,64.37
2023-02-28T18:09:17.505Z,63.85
2023-02-28T18:12:08.849Z,64.36
2023-02-28T18:14:58.601Z,64.41
2023-02-28T18:17:48.476Z,64.53
2023-02-28T18:20:38.061Z,64.30
2023-02-28T18:23:27.484Z,65.13
2023-02-28T18:26:17.496Z,65.09
2023-02-28T18:29:09.333Z,65.46
2023-02-28T18:31:59.499Z,66.04
2023-02-28T18:34:49.630Z,65.91
2023-02-28T18:37:39.614Z,66.69
2023-02-28T18:40:29.409Z,65.97
2023-02-28T18:43:20.099Z,65.92
2023-02-28T18:46:13.898Z,66.20
2023-02-28T18:49:04.561Z,65.91
2023-02-28T18:51:54.735Z,66.20
2023-02-28T18:54:44.764Z,66.38
2023-02-28T18:57:35.108Z,67.09
2023-02-28T19:00:25.991Z,67.08
2023-02-28T19:03:16.659Z,66.67
2023-02-28T19:06:07.363Z,66.95
2023-02-28T19:08:57.874Z,67.03
2023-02-28T19:11:47.747Z,67.27
2023-02-28T19:14:38.252Z,66.66
2023-02-28T19:17:28.138Z,68.04
2023-02-28T19:20:20.069Z,67.67
2023-02-28T19:23:12.142Z,68.06
2023-02-28T19:26:02.188Z,67.81
2023-02-28T19:28:51.988Z,67.88
2023-02-28T19:31:42.106Z,67.65
2023-02-28T19:34:31.939Z,67.77
2023-02-28T19:37:22.741Z,67.80
2023-02-28T19:40:14.870Z,67.55
2023-02-28T19:43:05.428Z,67.88
2023-02-28T19:45:55.930Z,67.49
2023-02-28T19:48:45.530Z,67.52
2023-02-28T19:51:35.447Z,67.90
2023-02-28T19:54:26.617Z,67.76
2023-02-28T19:57:16.769Z,67.09
2023-02-28T20:00:07.245Z,67.28
2023-02-28T20:03:01.745Z,67.21
2023-02-28T20:06:04.162Z,67.18
2023-02-28T20:08:57.076Z,67.17
2023-02-28T20:11:49.002Z,67.85
2023-02-28T20:14:39.422Z,66.69
2023-02-28T20:17:30.726Z,67.24
2023-02-28T20:20:20.808Z,66.93
2023-02-28T20:23:11.329Z,68.00
2023-02-28T20:26:01.508Z,67.69
2023-02-28T20:28:52.917Z,68.01
2023-02-28T20:31:43.522Z,67.16
2023-02-28T20:34:33.426Z,68.38
2023-02-28T20:37:23.834Z,67.80
2023-02-28T20:40:14.825Z,68.29
2023-02-28T20:43:04.493Z,67.57
2023-02-28T20:45:58.671Z,67.68
2023-02-28T20:48:48.797Z,67.34
2023-02-28T20:51:40.502Z,68.00
2023-02-28T20:54:31.370Z,67.25
2023-02-28T20:57:21.596Z,67.89
2023-02-28T21:00:19.857Z,67.26
2023-02-28T21:03:11.911Z,67.28
2023-02-28T21:06:03.766Z,66.92
2023-02-28T21:08:55.461Z,66.84
2023-02-28T21:11:46.283Z,67.39
2023-02-28T21:14:36.693Z,67.03
2023-02-28T21:17:27.781Z,67.47
2023-02-28T21:20:23.436Z,67.64
2023-02-28T21:23:14.509Z,67.51
2023-02-28T21:26:06.244Z,67.02
2023-02-28T21:28:58.046Z,67.41
2023-02-28T21:31:47.888Z,67.72
2023-02-28T21:34:37.725Z,67.71
2023-02-28T21:37:28.965Z,67.68
2023-02-28T21:40:19.102Z,67.56
2023-02-28T21:43:09.341Z,67.84
2023-02-28T21:46:02.879Z,68.14
2023-02-28T21:48:53.428Z,68.41
2023-02-28T21:51:43.803Z,68.01
2023-02-28T21:54:35.335Z,68.22
2023-02-28T21:57:26.019Z,67.96
2023-02-28T22:00:17.352Z,67.85
2023-02-28T22:03:07.866Z,67.98
2023-02-28T22:05:58.138Z,68.39
2023-02-28T22:08:50.191Z,68.58
2023-02-28T22:11:41.401Z,68.11
2023-02-28T22:14:31.266Z,68.51
2023-02-28T22:17:21.156Z,69.18
2023-02-28T22:20:13.106Z,69.51
2023-02-28T22:23:02.756Z,69.08
2023-02-28T22:25:54.183Z,69.71
2023-02-28T22:28:46.212Z,69.64
2023-02-28T22:31:38.174Z,70.03
2023-02-28T22:34:28.752Z,70.34
2023-02-28T22:37:18.945Z,70.34
2023-02-28T22:40:10.459Z,70.08
2023-02-28T22:43:00.853Z,70.17
2023-02-28T22:45:52.309Z,70.33
2023-02-28T22:48:41.932Z,69.91
2023-02-28T22:51:34.090Z,70.05
2023-02-28T22:54:23.876Z,70.22
2023-02-28T22:57:14.166Z,69.88
2023-02-28T23:00:07.748Z,70.46
2023-02-28T23:02:59.867Z,70.16
2023-02-28T23:05:53.650Z,69.81
2023-02-28T23:08:44.964Z,70.44
2023-02-28T23:11:37.520Z,69.72
2023-02-28T23:14:27.278Z,69.47
2023-02-28T23:17:17.996Z,70.64
2023-02-28T23:20:11.257Z,69.97
2023-02-28T23:23:05.136Z,69.87
2023-02-28T23:25:55.221Z,69.69
2023-02-28T23:28:45.523Z,69.75
2023-02-28T23:31:37.716Z,69.75
2023-02-28T23:34:30.836Z,69.64
2023-02-28T23:37:22.675Z,70.20
2023-02-28T23:40:17.229Z,69.99
2023-02-28T23:43:10.495Z,70.27
2023-02-28T23:46:03.427Z,70.41
2023-02-28T23:48:53.346Z,70.55
2023-02-28T23:51:43.227Z,70.77
2023-02-28T23:54:34.662Z,69.69
2023-02-28T23:57:24.642Z,70.13
